Time,TemperatureF,DewpointF,PressureIn,WindDirection,WindDirectionDegrees,WindSpeedMPH,WindSpeedGustMPH,Humidity,HourlyPrecipIn,Conditions,Clouds,dailyrainin,SoftwareType,DateUTC
2013-07-04 00:02:00,81.0,76.0,30.08,East,81,9.0,16.0,86,0.00,,,0.18,,2013-07-04 04:02:00,
2013-07-04 00:11:00,82.0,77.0,30.08,ENE,78,11.0,18.0,84,0.00,,,0.18,,2013-07-04 04:11:00,
2013-07-04 00:22:00,82.0,77.0,30.08,ENE,63,10.0,17.0,84,0.00,,,0.18,,2013-07-04 04:22:00,
2013-07-04 00:33:00,82.0,77.0,30.08,East,97,14.0,19.0,84,0.00,,,0.18,,2013-07-04 04:33:00,
2013-07-04 00:52:00,82.0,77.0,30.07,ESE,110,11.0,19.0,84,0.00,,,0.18,,2013-07-04 04:52:00,
2013-07-04 01:02:00,82.0,77.0,30.07,ESE,110,11.0,19.0,84,0.00,,,0.18,,2013-07-04 05:02:00,
2013-07-04 01:12:00,82.0,77.0,30.07,East,89,12.0,18.0,84,0.00,,,0.18,,2013-07-04 05:12:00,
2013-07-04 01:22:00,82.0,77.0,30.06,East,99,12.0,19.0,85,0.00,,,0.18,,2013-07-04 05:22:00,
2013-07-04 01:33:00,83.0,78.0,30.06,ENE,57,8.0,19.0,85,0.00,,,0.18,,2013-07-04 05:33:00,
2013-07-04 01:43:00,82.0,77.0,30.05,ENE,63,9.0,14.0,85,0.00,,,0.18,,2013-07-04 05:43:00,
2013-07-04 01:52:00,82.0,77.0,30.05,East,99,9.0,17.0,85,0.00,,,0.18,,2013-07-04 05:52:00,
2013-07-04 02:01:00,82.0,77.0,30.05,East,95,13.0,18.0,84,0.00,,,0.18,,2013-07-04 06:01:00,
2013-07-04 02:11:00,82.0,76.0,30.05,East,90,15.0,21.0,83,0.00,,,0.18,,2013-07-04 06:11:00,
2013-07-04 02:34:00,82.0,76.0,30.04,NE,56,11.0,21.0,83,0.00,,,0.18,,2013-07-04 06:34:00,
2013-07-04 02:43:00,82.0,77.0,30.04,East,93,9.0,18.0,84,0.00,,,0.18,,2013-07-04 06:43:00,
2013-07-04 02:52:00,82.0,77.0,30.04,East,89,10.0,17.0,84,0.00,,,0.18,,2013-07-04 06:52:00,
2013-07-04 03:02:00,82.0,76.0,30.04,ENE,58,12.0,18.0,83,0.00,,,0.18,,2013-07-04 07:02:00,
2013-07-04 03:12:00,82.0,77.0,30.03,East,95,9.0,21.0,84,0.00,,,0.18,,2013-07-04 07:12:00,
2013-07-04 03:22:00,82.0,77.0,30.03,East,91,11.0,21.0,84,0.00,,,0.18,,2013-07-04 07:22:00,
2013-07-04 03:34:00,82.0,76.0,30.03,East,85,12.0,21.0,83,0.00,,,0.18,,2013-07-04 07:34:00,
2013-07-04 03:43:00,82.0,76.0,30.03,East,85,12.0,21.0,83,0.00,,,0.18,,2013-07-04 07:43:00,
2013-07-04 03:52:00,83.0,77.0,30.03,East,82,11.0,21.0,83,0.00,,,0.18,,2013-07-04 07:52:00,
2013-07-04 04:02:00,82.0,76.0,30.03,East,94,12.0,23.0,82,0.00,,,0.18,,2013-07-04 08:02:00,
2013-07-04 04:11:00,82.0,76.0,30.03,East,85,14.0,21.0,82,0.00,,,0.18,,2013-07-04 08:11:00,
2013-07-04 04:22:00,82.0,76.0,30.03,East,86,14.0,21.0,82,0.00,,,0.18,,2013-07-04 08:22:00,
2013-07-04 04:33:00,82.0,76.0,30.03,East,97,12.0,22.0,82,0.00,,,0.18,,2013-07-04 08:33:00,
2013-07-04 04:42:00,82.0,76.0,30.03,East,81,11.0,17.0,83,0.00,,,0.18,,2013-07-04 08:42:00,
2013-07-04 04:53:00,82.0,76.0,30.03,East,93,13.0,21.0,83,0.00,,,0.18,,2013-07-04 08:53:00,
2013-07-04 05:02:00,82.0,77.0,30.03,East,97,12.0,21.0,84,0.00,,,0.18,,2013-07-04 09:02:00,
2013-07-04 05:11:00,82.0,77.0,30.03,East,91,16.0,22.0,84,0.00,,,0.18,,2013-07-04 09:11:00,
2013-07-04 05:32:00,82.0,77.0,30.03,East,87,12.0,18.0,84,0.00,,,0.18,,2013-07-04 09:32:00,
2013-07-04 05:42:00,82.0,76.0,30.03,East,96,14.0,23.0,83,0.00,,,0.18,,2013-07-04 09:42:00,
2013-07-04 05:52:00,82.0,76.0,30.03,ENE,76,14.0,21.0,83,0.00,,,0.18,,2013-07-04 09:52:00,
2013-07-04 06:01:00,82.0,76.0,30.03,East,99,15.0,23.0,83,0.00,,,0.18,,2013-07-04 10:01:00,
2013-07-04 06:11:00,82.0,76.0,30.03,East,88,17.0,23.0,82,0.00,,,0.18,,2013-07-04 10:11:00,
2013-07-04 06:22:00,82.0,76.0,30.03,East,97,16.0,23.0,82,0.00,,,0.18,,2013-07-04 10:22:00,
2013-07-04 06:34:00,82.0,77.0,30.03,East,83,14.0,21.0,84,0.00,,,0.18,,2013-07-04 10:34:00,
2013-07-04 06:43:00,82.0,76.0,30.03,East,81,14.0,21.0,83,0.00,,,0.18,,2013-07-04 10:43:00,
2013-07-04 06:53:00,82.0,76.0,30.03,East,99,11.0,22.0,83,0.00,,,0.18,,2013-07-04 10:53:00,
2013-07-04 07:22:00,82.0,76.0,30.04,ESE,114,15.0,22.0,83,0.00,,,0.18,,2013-07-04 11:22:00,
2013-07-04 07:43:00,83.0,77.0,30.05,East,91,17.0,24.0,82,0.00,,,0.18,,2013-07-04 11:43:00,
2013-07-04 07:53:00,81.0,75.0,30.05,East,95,9.0,22.0,82,0.00,,,0.18,,2013-07-04 11:53:00,
2013-07-04 08:12:00,83.0,77.0,30.06,East,79,18.0,24.0,81,0.00,,,0.18,,2013-07-04 12:12:00,
2013-07-04 08:22:00,83.0,77.0,30.07,ESE,112,15.0,22.0,82,0.00,,,0.18,,2013-07-04 12:22:00,
2013-07-04 08:33:00,83.0,77.0,30.07,ESE,109,12.0,23.0,81,0.00,,,0.18,,2013-07-04 12:33:00,
2013-07-04 08:43:00,83.0,76.0,30.07,ESE,115,13.0,21.0,80,0.00,,,0.18,,2013-07-04 12:43:00,
2013-07-04 08:52:00,84.0,77.0,30.07,East,101,15.0,22.0,79,0.00,,,0.18,,2013-07-04 12:52:00,
2013-07-04 09:12:00,81.0,74.0,30.08,ESE,114,18.0,29.0,79,0.00,,,0.18,,2013-07-04 13:12:00,
2013-07-04 09:23:00,82.0,75.0,30.08,East,95,13.0,25.0,80,0.00,,,0.18,,2013-07-04 13:23:00,
2013-07-04 09:33:00,84.0,77.0,30.09,ESE,120,11.0,20.0,80,0.00,,,0.18,,2013-07-04 13:33:00,
2013-07-04 09:43:00,84.0,78.0,30.09,East,87,11.0,22.0,81,0.00,,,0.18,,2013-07-04 13:43:00,
2013-07-04 09:53:00,84.0,77.0,30.09,ESE,102,13.0,18.0,80,0.00,,,0.18,,2013-07-04 13:53:00,
2013-07-04 10:02:00,82.0,75.0,30.10,ESE,107,15.0,27.0,80,0.00,,,0.18,,2013-07-04 14:02:00,
2013-07-04 10:11:00,79.0,74.0,30.10,East,83,11.0,26.0,85,0.09,,,0.27,,2013-07-04 14:11:00,
2013-07-04 10:22:00,79.0,74.0,30.11,ESE,116,17.0,27.0,86,0.12,,,0.30,,2013-07-04 14:22:00,
2013-07-04 10:33:00,78.0,74.0,30.09,East,100,13.0,25.0,88,0.16,,,0.34,,2013-07-04 14:33:00,
2013-07-04 10:43:00,78.0,74.0,30.09,East,101,9.0,15.0,88,0.16,,,0.34,,2013-07-04 14:43:00,
2013-07-04 10:53:00,80.0,76.0,30.09,ESE,106,12.0,20.0,87,0.16,,,0.34,,2013-07-04 14:53:00,
2013-07-04 11:02:00,79.0,74.0,30.10,East,89,14.0,26.0,84,0.16,,,0.34,,2013-07-04 15:02:00,
2013-07-04 11:11:00,79.0,74.0,30.10,East,97,8.0,16.0,84,0.07,,,0.34,,2013-07-04 15:11:00,
2013-07-04 11:23:00,80.0,75.0,30.09,ESE,106,9.0,17.0,84,0.04,,,0.34,,2013-07-04 15:23:00,
2013-07-04 11:33:00,82.0,77.0,30.09,ESE,108,11.0,18.0,84,0.00,,,0.34,,2013-07-04 15:33:00,
2013-07-04 11:43:00,83.0,77.0,30.09,East,80,13.0,19.0,83,0.00,,,0.34,,2013-07-04 15:43:00,
2013-07-04 11:52:00,83.0,78.0,30.09,ENE,70,9.0,17.0,84,0.00,,,0.34,,2013-07-04 15:52:00,
2013-07-04 12:02:00,84.0,79.0,30.09,East,88,11.0,16.0,85,0.00,,,0.34,,2013-07-04 16:02:00,
2013-07-04 12:11:00,84.0,78.0,30.09,East,79,13.0,22.0,81,0.00,,,0.34,,2013-07-04 16:11:00,
2013-07-04 12:22:00,85.0,78.0,30.09,East,99,11.0,19.0,80,0.00,,,0.34,,2013-07-04 16:22:00,
2013-07-04 12:33:00,85.0,78.0,30.09,East,79,9.0,18.0,80,0.00,,,0.34,,2013-07-04 16:33:00,
2013-07-04 12:43:00,85.0,77.0,30.09,East,90,13.0,21.0,78,0.00,,,0.34,,2013-07-04 16:43:00,
2013-07-04 12:52:00,85.0,78.0,30.09,ENE,76,12.0,19.0,80,0.00,,,0.34,,2013-07-04 16:52:00,
2013-07-04 13:01:00,85.0,78.0,30.09,ENE,74,13.0,22.0,79,0.00,,,0.34,,2013-07-04 17:01:00,
2013-07-04 13:12:00,85.0,77.0,30.09,East,81,12.0,19.0,78,0.00,,,0.34,,2013-07-04 17:12:00,
2013-07-04 13:22:00,85.0,77.0,30.09,ESE,112,14.0,21.0,78,0.00,,,0.34,,2013-07-04 17:22:00,
2013-07-04 13:34:00,86.0,78.0,30.09,ENE,78,13.0,22.0,78,0.00,,,0.34,,2013-07-04 17:34:00,
2013-07-04 13:43:00,85.0,78.0,30.09,East,87,13.0,23.0,79,0.00,,,0.34,,2013-07-04 17:43:00,
2013-07-04 13:53:00,85.0,77.0,30.09,East,100,14.0,22.0,77,0.00,,,0.34,,2013-07-04 17:53:00,
2013-07-04 14:01:00,86.0,78.0,30.08,ENE,78,11.0,19.0,78,0.00,,,0.34,,2013-07-04 18:01:00,
2013-07-04 14:11:00,85.0,77.0,30.08,East,95,12.0,22.0,78,0.00,,,0.34,,2013-07-04 18:11:00,
2013-07-04 14:22:00,86.0,78.0,30.08,East,85,14.0,22.0,77,0.00,,,0.34,,2013-07-04 18:22:00,
2013-07-04 14:33:00,86.0,78.0,30.08,ESE,102,12.0,21.0,77,0.00,,,0.34,,2013-07-04 18:33:00,
2013-07-04 14:43:00,86.0,78.0,30.08,ESE,102,12.0,21.0,77,0.00,,,0.34,,2013-07-04 18:43:00,
2013-07-04 14:52:00,86.0,78.0,30.07,East,96,12.0,21.0,77,0.00,,,0.34,,2013-07-04 18:52:00,
2013-07-04 15:02:00,85.0,77.0,30.07,ENE,67,11.0,21.0,78,0.00,,,0.34,,2013-07-04 19:02:00,
2013-07-04 15:12:00,86.0,78.0,30.07,ENE,76,13.0,23.0,77,0.00,,,0.34,,2013-07-04 19:12:00,
2013-07-04 15:22:00,85.0,77.0,30.06,East,84,10.0,18.0,78,0.00,,,0.34,,2013-07-04 19:22:00,
2013-07-04 15:33:00,86.0,78.0,30.06,East,86,9.0,18.0,78,0.00,,,0.34,,2013-07-04 19:33:00,
2013-07-04 15:43:00,86.0,78.0,30.06,East,97,12.0,18.0,77,0.00,,,0.34,,2013-07-04 19:43:00,
2013-07-04 15:53:00,86.0,79.0,30.06,East,81,10.0,18.0,79,0.00,,,0.34,,2013-07-04 19:53:00,
2013-07-04 16:02:00,86.0,78.0,30.06,East,101,13.0,22.0,77,0.00,,,0.34,,2013-07-04 20:02:00,
2013-07-04 16:11:00,86.0,78.0,30.06,ENE,76,14.0,21.0,78,0.00,,,0.34,,2013-07-04 20:11:00,
2013-07-04 16:22:00,85.0,77.0,30.06,ENE,77,13.0,21.0,77,0.00,,,0.34,,2013-07-04 20:22:00,
2013-07-04 16:34:00,85.0,77.0,30.06,ESE,104,9.0,18.0,78,0.00,,,0.34,,2013-07-04 20:34:00,
2013-07-04 16:42:00,85.0,77.0,30.05,ENE,72,15.0,22.0,78,0.00,,,0.34,,2013-07-04 20:42:00,
2013-07-04 16:53:00,85.0,77.0,30.05,East,85,13.0,22.0,78,0.00,,,0.34,,2013-07-04 20:53:00,
2013-07-04 17:01:00,85.0,77.0,30.05,East,84,8.0,18.0,78,0.00,,,0.34,,2013-07-04 21:01:00,
2013-07-04 17:11:00,85.0,77.0,30.04,ENE,74,12.0,19.0,77,0.00,,,0.34,,2013-07-04 21:11:00,
2013-07-04 17:22:00,85.0,77.0,30.04,SSE,151,9.0,18.0,77,0.00,,,0.34,,2013-07-04 21:22:00,
2013-07-04 17:32:00,85.0,77.0,30.03,ENE,72,8.0,18.0,77,0.00,,,0.34,,2013-07-04 21:32:00,
2013-07-04 17:43:00,85.0,77.0,30.03,East,82,10.0,21.0,77,0.00,,,0.34,,2013-07-04 21:43:00,
2013-07-04 17:53:00,85.0,77.0,30.03,East,92,9.0,17.0,77,0.00,,,0.34,,2013-07-04 21:53:00,
2013-07-04 18:02:00,85.0,77.0,30.03,ENE,76,9.0,16.0,77,0.00,,,0.34,,2013-07-04 22:02:00,
2013-07-04 18:12:00,85.0,77.0,30.03,ENE,72,10.0,17.0,76,0.00,,,0.34,,2013-07-04 22:12:00,
2013-07-04 18:22:00,84.0,76.0,30.03,East,82,12.0,16.0,76,0.00,,,0.34,,2013-07-04 22:22:00,
2013-07-04 18:33:00,84.0,76.0,30.04,ENE,63,11.0,16.0,78,0.00,,,0.34,,2013-07-04 22:33:00,
2013-07-04 18:43:00,84.0,76.0,30.03,ENE,60,8.0,21.0,77,0.00,,,0.34,,2013-07-04 22:43:00,
2013-07-04 18:52:00,84.0,75.0,30.04,East,90,10.0,15.0,75,0.00,,,0.34,,2013-07-04 22:52:00,
2013-07-04 19:01:00,84.0,76.0,30.04,East,82,10.0,16.0,76,0.00,,,0.34,,2013-07-04 23:01:00,
2013-07-04 19:12:00,84.0,76.0,30.05,East,92,12.0,16.0,76,0.00,,,0.34,,2013-07-04 23:12:00,
2013-07-04 19:23:00,84.0,76.0,30.05,East,91,10.0,16.0,77,0.00,,,0.25,,2013-07-04 23:23:00,
2013-07-04 19:33:00,84.0,76.0,30.05,East,95,8.0,18.0,76,0.00,,,0.25,,2013-07-04 23:33:00,
2013-07-04 19:43:00,84.0,76.0,30.05,ENE,76,9.0,16.0,76,0.00,,,0.25,,2013-07-04 23:43:00,
2013-07-04 19:52:00,84.0,76.0,30.05,East,100,10.0,18.0,77,0.00,,,0.25,,2013-07-04 23:52:00,
2013-07-04 20:01:00,84.0,76.0,30.05,East,93,12.0,17.0,78,0.00,,,0.25,,2013-07-05 00:01:00,
2013-07-04 20:11:00,84.0,77.0,30.06,East,89,11.0,16.0,79,0.00,,,0.25,,2013-07-05 00:11:00,
2013-07-04 20:22:00,83.0,76.0,30.06,East,101,8.0,15.0,79,0.00,,,0.25,,2013-07-05 00:22:00,
2013-07-04 20:32:00,83.0,76.0,30.06,ENE,74,11.0,15.0,79,0.00,,,0.25,,2013-07-05 00:32:00,
2013-07-04 20:43:00,83.0,76.0,30.06,ENE,74,11.0,15.0,79,0.00,,,0.25,,2013-07-05 00:43:00,
2013-07-04 20:52:00,83.0,76.0,30.07,East,86,8.0,16.0,80,0.00,,,0.25,,2013-07-05 00:52:00,
2013-07-04 21:01:00,83.0,76.0,30.07,East,86,8.0,16.0,80,0.00,,,0.25,,2013-07-05 01:01:00,
2013-07-04 21:11:00,83.0,76.0,30.07,East,85,11.0,17.0,80,0.00,,,0.25,,2013-07-05 01:11:00,
2013-07-04 21:22:00,83.0,76.0,30.07,East,85,11.0,17.0,80,0.00,,,0.25,,2013-07-05 01:22:00,
2013-07-04 21:32:00,83.0,76.0,30.07,East,94,10.0,17.0,80,0.00,,,0.25,,2013-07-05 01:32:00,
2013-07-04 21:42:00,83.0,76.0,30.07,East,94,10.0,17.0,80,0.00,,,0.25,,2013-07-05 01:42:00,
2013-07-04 21:52:00,83.0,77.0,30.09,ESE,108,6.0,17.0,82,0.00,,,0.17,,2013-07-05 01:52:00,
2013-07-04 22:02:00,83.0,77.0,30.09,East,95,7.0,15.0,82,0.00,,,0.17,,2013-07-05 02:02:00,
2013-07-04 22:11:00,83.0,77.0,30.09,East,95,7.0,15.0,82,0.00,,,0.17,,2013-07-05 02:11:00,
2013-07-04 22:22:00,83.0,77.0,30.09,East,95,7.0,15.0,82,0.00,,,0.17,,2013-07-05 02:22:00,
2013-07-04 22:32:00,83.0,77.0,30.09,East,83,9.0,16.0,81,0.00,,,0.17,,2013-07-05 02:32:00,
2013-07-04 22:42:00,83.0,77.0,30.09,East,83,9.0,16.0,81,0.00,,,0.17,,2013-07-05 02:42:00,
2013-07-04 22:53:00,83.0,77.0,30.09,East,83,9.0,16.0,81,0.00,,,0.17,,2013-07-05 02:53:00,
2013-07-04 23:02:00,83.0,77.0,30.09,East,83,9.0,16.0,81,0.00,,,0.17,,2013-07-05 03:02:00,
2013-07-04 23:11:00,83.0,77.0,30.10,East,85,10.0,17.0,82,0.00,,,0.16,,2013-07-05 03:11:00,
2013-07-04 23:22:00,83.0,77.0,30.10,East,85,10.0,17.0,82,0.00,,,0.16,,2013-07-05 03:22:00,
2013-07-04 23:33:00,83.0,77.0,30.10,East,85,10.0,17.0,82,0.00,,,0.16,,2013-07-05 03:33:00,
2013-07-04 23:42:00,82.0,76.0,30.10,ESE,116,12.0,16.0,82,0.00,,,0.16,,2013-07-05 03:42:00,
2013-07-04 23:52:00,82.0,76.0,30.10,ESE,116,12.0,16.0,82,0.00,,,0.16,,2013-07-05 03:52:00,